Time;durP1;ratioP1;P1;durP2;ratioP2;P2;SDS_P1;SDS_P2;PMS_P1;PMS_P2;Temp;Humidity;BMP_temperature;BMP_pressure;BME280_temperature;BME280_humidity;BME280_pressure;Samples;Min_cycle;Max_cycle;Signal;HPM_P1;HPM_P2
2021/01/01 00:00:12;;;;;;;84.47;49.95;;;2.60;99.90;;;;;;5028553;28;20092;-72
2021/01/01 00:06:18;;;;;;;33.75;21.23;;;2.60;99.90;;;;;;5028691;28;20096;-73
2021/01/01 00:16:10;;;;;;;39.63;24.90;;;2.40;99.90;;;;;;5028786;28;20128;-72
2021/01/01 00:22:17;;;;;;;31.20;21.67;;;2.70;99.90;;;;;;5010761;28;20304;-74
2021/01/01 00:28:24;;;;;;;30.70;18.20;;;3.00;99.90;;;;;;5011442;28;20048;-74
2021/01/01 00:38:18;;;;;;;23.90;16.35;;;3.30;99.90;;;;;;5010380;28;20056;-73
2021/01/01 00:44:25;;;;;;;28.45;17.67;;;3.30;99.90;;;;;;5010354;28;20037;-73
2021/01/01 00:50:31;;;;;;;30.42;20.13;;;3.20;99.90;;;;;;5010497;28;20069;-74
2021/01/01 00:56:37;;;;;;;40.63;22.20;;;2.90;99.90;;;;;;5010326;28;20124;-73
2021/01/01 01:02:43;;;;;;;27.88;17.08;;;2.90;99.90;;;;;;5010042;28;20044;-73
2021/01/01 01:08:50;;;;;;;24.75;14.63;;;3.00;99.90;;;;;;5010205;28;20045;-74
2021/01/01 01:14:57;;;;;;;29.38;17.02;;;3.00;99.90;;;;;;5010547;28;20048;-74
2021/01/01 01:21:03;;;;;;;29.63;17.70;;;3.00;99.90;;;;;;5010647;28;20061;-72
2021/01/01 01:27:10;;;;;;;31.23;19.42;;;3.10;99.90;;;;;;5009942;28;20048;-73
2021/01/01 01:33:16;;;;;;;25.88;17.00;;;3.20;99.90;;;;;;5009817;28;20095;-73
2021/01/01 01:39:37;;;;;;;22.33;15.27;;;3.30;99.90;;;;;;5009639;28;20053;-73
2021/01/01 01:45:43;;;;;;;25.20;15.00;;;3.40;99.90;;;;;;5009885;28;20276;-75
2021/01/01 01:51:52;;;;;;;24.33;14.70;;;3.40;99.90;;;;;;5009594;28;20205;-75
2021/01/01 01:57:59;;;;;;;22.85;14.40;;;3.40;99.90;;;;;;5008845;28;20049;-73
2021/01/01 02:04:06;;;;;;;25.13;14.43;;;3.40;99.90;;;;;;5009585;28;20045;-74
2021/01/01 02:10:12;;;;;;;21.90;12.30;;;3.50;99.90;;;;;;5008904;28;20117;-72
2021/01/01 02:16:21;;;;;;;20.52;12.05;;;3.50;99.90;;;;;;5009159;28;20049;-73
2021/01/01 02:22:30;;;;;;;17.35;11.60;;;3.70;99.90;;;;;;5008700;28;20080;-74
2021/01/01 02:28:37;;;;;;;19.13;12.90;;;3.80;99.90;;;;;;5008915;28;20104;-73
2021/01/01 02:38:31;;;;;;;37.13;24.30;;;3.80;99.90;;;;;;5008180;28;20467;-73
2021/01/01 02:44:38;;;;;;;37.92;27.50;;;3.70;99.90;;;;;;5008474;28;20266;-72
2021/01/01 02:50:45;;;;;;;33.17;21.67;;;3.80;99.90;;;;;;5008581;28;20444;-74
2021/01/01 02:56:52;;;;;;;17.02;14.75;;;3.80;99.90;;;;;;5008746;28;20148;-73
2021/01/01 03:02:58;;;;;;;22.17;13.30;;;3.70;99.90;;;;;;5008368;28;20406;-73
2021/01/01 03:09:05;;;;;;;19.23;11.75;;;3.70;99.90;;;;;;5007990;28;20493;-74
2021/01/01 03:15:12;;;;;;;16.95;11.45;;;3.70;99.90;;;;;;5008624;28;20188;-74
2021/01/01 03:21:19;;;;;;;17.80;11.25;;;3.60;99.90;;;;;;5012363;28;20088;-73
2021/01/01 03:27:25;;;;;;;17.73;10.88;;;3.50;99.90;;;;;;5012425;28;20044;-74
2021/01/01 03:38:09;;;;;;;22.65;12.38;;;3.50;99.90;;;;;;5012338;28;20518;-73
2021/01/01 03:44:27;;;;;;;18.85;10.77;;;3.50;99.90;;;;;;5011901;28;20045;-71
2021/01/01 03:50:34;;;;;;;25.52;14.98;;;3.50;99.90;;;;;;5011721;28;20096;-73
2021/01/01 03:56:40;;;;;;;14.43;8.48;;;3.40;99.90;;;;;;5011892;28;20045;-74
2021/01/01 04:02:46;;;;;;;22.40;9.15;;;3.50;99.90;;;;;;5012009;28;20044;-73
2021/01/01 04:08:53;;;;;;;14.63;7.45;;;3.40;99.90;;;;;;5011387;28;20041;-73
2021/01/01 04:14:59;;;;;;;11.13;7.07;;;3.30;99.90;;;;;;5011442;28;20045;-73
2021/01/01 04:21:07;;;;;;;18.45;6.60;;;3.40;99.90;;;;;;5011498;28;20052;-74
2021/01/01 04:27:13;;;;;;;20.85;12.20;;;3.40;99.90;;;;;;5011092;28;20153;-73
2021/01/01 04:33:20;;;;;;;9.57;4.30;;;3.40;99.90;;;;;;5010915;28;20049;-73
2021/01/01 04:39:39;;;;;;;6.95;2.50;;;3.50;99.90;;;;;;5010837;28;20116;-74
2021/01/01 04:45:46;;;;;;;7.78;2.25;;;3.50;99.90;;;;;;5010570;28;20486;-73
2021/01/01 04:51:52;;;;;;;4.03;1.70;;;3.60;99.90;;;;;;5010909;28;20049;-73
2021/01/01 04:57:58;;;;;;;4.68;1.50;;;3.60;99.90;;;;;;5010522;28;20540;-72
2021/01/01 05:04:05;;;;;;;9.68;1.77;;;3.50;99.90;;;;;;5010357;28;20103;-72
2021/01/01 05:10:12;;;;;;;2.08;1.50;;;3.40;99.90;;;;;;5010155;28;20438;-73
2021/01/01 05:16:18;;;;;;;7.93;1.52;;;3.40;99.90;;;;;;5010464;28;20084;-73
2021/01/01 05:22:32;;;;;;;4.50;1.48;;;3.60;99.90;;;;;;5010453;28;20052;-73
2021/01/01 05:28:51;;;;;;;6.55;1.88;;;3.50;99.90;;;;;;5009851;28;20061;-73
2021/01/01 05:38:51;;;;;;;7.30;1.92;;;3.50;99.90;;;;;;5009442;28;20436;-73
2021/01/01 05:55:39;;;;;;;3.13;1.45;;;3.60;99.90;;;;;;5009509;28;20048;-73
2021/01/01 06:01:46;;;;;;;3.55;1.00;;;3.70;99.90;;;;;;5009448;28;20037;-72
2021/01/01 06:07:57;;;;;;;3.55;1.30;;;3.70;99.90;;;;;;5009332;28;20176;-73
2021/01/01 06:14:05;;;;;;;2.30;1.20;;;3.70;99.90;;;;;;5008852;28;20111;-73
2021/01/01 06:42:08;;;;;;;3.35;1.30;;;3.40;99.90;;;;;;5009307;28;20084;-74
2021/01/01 06:48:18;;;;;;;4.03;1.30;;;3.40;99.90;;;;;;5008845;28;20036;-72
2021/01/01 06:54:24;;;;;;;3.00;1.17;;;3.30;99.90;;;;;;5007773;28;20064;-73
2021/01/01 07:05:01;;;;;;;6.38;1.15;;;3.30;99.90;;;;;;5008586;28;20032;-75
2021/01/01 07:11:07;;;;;;;9.73;2.65;;;3.20;99.90;;;;;;5008800;28;20406;-74
2021/01/01 07:17:14;;;;;;;7.75;1.95;;;3.40;99.90;;;;;;5008331;28;20052;-73
2021/01/01 07:23:20;;;;;;;4.38;1.70;;;3.40;99.90;;;;;;5008339;28;20080;-74
2021/01/01 07:29:27;;;;;;;3.40;1.20;;;3.50;99.90;;;;;;5008088;28;20433;-72
2021/01/01 07:35:33;;;;;;;2.95;1.17;;;3.50;99.90;;;;;;5008010;28;20088;-71
2021/01/01 07:42:07;;;;;;;5.88;1.27;;;3.50;99.90;;;;;;5007446;28;20129;-73
2021/01/01 07:48:14;;;;;;;7.93;1.63;;;3.60;99.90;;;;;;5006858;28;20556;-72
2021/01/01 07:59:11;;;;;;;5.03;1.33;;;3.60;99.90;;;;;;5008006;28;20453;-72
2021/01/01 08:05:18;;;;;;;9.48;5.85;;;3.70;99.90;;;;;;5008774;28;20458;-72
2021/01/01 08:11:24;;;;;;;10.88;2.50;;;3.70;99.90;;;;;;5011029;28;20045;-71
2021/01/01 08:17:30;;;;;;;3.13;1.95;;;3.90;99.90;;;;;;5010827;28;20548;-71
2021/01/01 08:23:50;;;;;;;3.08;1.42;;;4.30;99.90;;;;;;5010645;28;20080;-71
2021/01/01 08:29:57;;;;;;;2.92;1.17;;;4.30;99.90;;;;;;5011572;28;20045;-72
2021/01/01 08:50:52;;;;;;;4.93;3.95;;;7.70;96.20;;;;;;5008707;28;20117;-73
2021/01/01 08:56:59;;;;;;;5.10;1.95;;;9.30;92.30;;;;;;5008723;28;20044;-73
2021/01/01 09:03:05;;;;;;;1.23;0.70;;;9.80;90.20;;;;;;5008384;28;20091;-73
2021/01/01 09:09:11;;;;;;;3.30;1.50;;;8.20;93.40;;;;;;5008113;28;20045;-74
2021/01/01 09:21:44;;;;;;;6.22;1.02;;;6.50;97.30;;;;;;5162160;27;20373;-72
2021/01/01 09:24:10;;;;;;;2.28;1.00;;;6.50;97.60;;;;;;5160525;27;20051;-73
2021/01/01 09:26:35;;;;;;;3.00;1.17;;;6.50;98.30;;;;;;5121003;27;20387;-73
2021/01/01 09:29:07;;;;;;;1.65;1.52;;;6.50;98.50;;;;;;4988335;27;93481;-73
2021/01/01 09:34:07;;;;;;;2.35;1.05;;;6.50;98.00;;;;;;5100488;27;20876;-85
2021/01/01 09:36:39;;;;;;;2.10;1.25;;;6.50;98.10;;;;;;5050842;27;20048;-86
2021/01/01 09:39:06;;;;;;;3.33;1.60;;;6.40;98.40;;;;;;5047184;27;20829;-84
2021/01/01 09:41:33;;;;;;;3.15;1.85;;;6.50;98.60;;;;;;5076104;28;20742;-85
2021/01/01 09:43:58;;;;;;;7.10;1.90;;;6.30;98.40;;;;;;5065865;28;20060;-86
2021/01/01 09:46:24;;;;;;;5.43;1.90;;;6.30;98.80;;;;;;5075068;28;20052;-87
2021/01/01 09:48:50;;;;;;;2.55;1.38;;;6.30;98.80;;;;;;5061190;28;20174;-86
2021/01/01 09:51:15;;;;;;;6.30;1.67;;;6.30;98.60;;;;;;5057605;28;20040;-86
2021/01/01 09:53:41;;;;;;;4.50;1.50;;;6.40;98.90;;;;;;5033531;28;192171;-84
2021/01/01 09:56:07;;;;;;;3.20;1.38;;;6.50;98.40;;;;;;5045057;28;20079;-85
2021/01/01 09:58:32;;;;;;;4.35;1.25;;;6.80;98.00;;;;;;5046469;28;20060;-85
2021/01/01 10:00:58;;;;;;;4.35;1.40;;;7.10;97.20;;;;;;5056286;28;20097;-88
2021/01/01 10:03:24;;;;;;;6.30;1.27;;;7.10;97.20;;;;;;5026597;28;20052;-86
2021/01/01 10:05:49;;;;;;;3.10;1.10;;;7.30;96.60;;;;;;5055376;28;20694;-86
2021/01/01 10:08:15;;;;;;;5.85;1.10;;;7.60;97.00;;;;;;5053240;28;20051;-86
2021/01/01 10:10:44;;;;;;;2.35;1.10;;;8.50;95.20;;;;;;5057933;28;20045;-87
2021/01/01 10:13:10;;;;;;;6.00;1.30;;;9.60;92.60;;;;;;5053404;28;20045;-86
2021/01/01 10:15:39;;;;;;;4.10;1.15;;;10.90;90.90;;;;;;5043819;28;20118;-88
2021/01/01 10:18:05;;;;;;;4.03;1.40;;;11.70;88.50;;;;;;5047483;28;20054;-89
2021/01/01 10:20:31;;;;;;;4.20;1.77;;;12.20;87.10;;;;;;5055576;28;20506;-86
2021/01/01 10:22:58;;;;;;;5.05;1.00;;;12.50;83.50;;;;;;5055021;28;20049;-86
2021/01/01 10:25:24;;;;;;;1.90;0.77;;;12.90;83.30;;;;;;5055246;28;20041;-88
2021/01/01 10:27:50;;;;;;;2.20;0.85;;;13.20;81.00;;;;;;5054301;28;20045;-87
2021/01/01 10:30:16;;;;;;;5.85;1.27;;;13.60;79.20;;;;;;5042353;28;20123;-86
2021/01/01 10:32:42;;;;;;;2.53;0.80;;;13.60;78.70;;;;;;5031118;28;20132;-86
2021/01/01 10:35:08;;;;;;;3.80;1.35;;;13.00;80.10;;;;;;5033085;28;20042;-86
2021/01/01 10:37:34;;;;;;;2.15;1.15;;;12.40;81.50;;;;;;5018633;28;20038;-87
2021/01/01 10:40:00;;;;;;;4.10;1.30;;;12.10;83.30;;;;;;5033037;28;20094;-86
2021/01/01 10:42:27;;;;;;;3.28;1.38;;;11.30;86.10;;;;;;5034591;28;20375;-86
2021/01/01 10:44:52;;;;;;;2.75;1.40;;;10.90;88.40;;;;;;5039557;28;20265;-86
2021/01/01 10:47:19;;;;;;;2.33;1.30;;;10.20;91.10;;;;;;5049753;28;20350;-85
2021/01/01 10:49:44;;;;;;;3.47;1.02;;;9.80;91.50;;;;;;5020740;28;20052;-87
2021/01/01 10:52:10;;;;;;;1.58;0.90;;;9.60;92.20;;;;;;5016375;28;20045;-86
2021/01/01 10:54:36;;;;;;;4.63;1.00;;;9.30;92.80;;;;;;5021682;28;20095;-85
2021/01/01 10:57:01;;;;;;;3.08;1.15;;;9.10;93.10;;;;;;5011323;28;20048;-86
2021/01/01 10:59:30;;;;;;;3.85;1.05;;;8.90;93.30;;;;;;5018687;28;20033;-86
2021/01/01 11:01:56;;;;;;;5.28;1.90;;;8.60;94.10;;;;;;5022497;28;20807;-87
2021/01/01 11:04:23;;;;;;;4.63;1.08;;;8.50;94.70;;;;;;5015474;28;20119;-86
2021/01/01 11:06:49;;;;;;;1.63;1.13;;;8.20;94.60;;;;;;5017235;28;20499;-87
2021/01/01 11:09:15;;;;;;;3.92;2.05;;;7.80;95.90;;;;;;5030605;28;20041;-86
2021/01/01 11:11:40;;;;;;;3.17;1.20;;;7.60;96.00;;;;;;5036879;28;20127;-86
2021/01/01 11:14:11;;;;;;;4.72;1.92;;;7.50;96.90;;;;;;5029187;28;20048;-86
2021/01/01 12:20:35;;;;;;;2.75;1.27;;;12.60;84.40;;;;;;5037305;28;20194;-88
2021/01/01 12:25:36;;;;;;;4.53;0.77;;;13.00;81.30;;;;;;5022198;28;20395;-86
2021/01/01 12:28:04;;;;;;;1.63;0.57;;;13.70;82.80;;;;;;5012353;28;20042;-87
2021/01/01 12:30:32;;;;;;;1.63;0.73;;;13.10;84.40;;;;;;4999357;28;20075;-86
2021/01/01 12:32:59;;;;;;;2.72;1.10;;;12.40;85.10;;;;;;5012520;28;20072;-85
2021/01/01 12:35:25;;;;;;;2.53;0.70;;;12.20;85.70;;;;;;5020983;28;20260;-85
2021/01/01 12:38:06;;;;;;;3.58;1.10;;;12.10;85.40;;;;;;5012943;28;20065;-87
2021/01/01 12:40:35;;;;;;;2.15;0.60;;;12.30;87.60;;;;;;5016472;28;20462;-87
2021/01/01 12:43:04;;;;;;;1.88;0.90;;;12.20;86.70;;;;;;5014457;28;20099;-83
2021/01/01 12:45:30;;;;;;;2.33;0.85;;;13.10;87.30;;;;;;5017045;28;20053;-87
2021/01/01 12:47:56;;;;;;;1.10;0.68;;;12.40;86.80;;;;;;5016568;28;20049;-86
2021/01/01 12:50:25;;;;;;;2.92;1.00;;;12.80;86.60;;;;;;5017407;28;20052;-87
2021/01/01 12:52:51;;;;;;;1.42;0.65;;;12.90;87.10;;;;;;5016514;28;20034;-88
2021/01/01 12:55:17;;;;;;;3.42;1.25;;;11.30;90.50;;;;;;5006514;28;20071;-86
2021/01/01 12:57:43;;;;;;;1.70;0.77;;;10.70;91.20;;;;;;5039603;28;20483;-88
2021/01/01 13:00:09;;;;;;;2.83;0.85;;;10.80;91.70;;;;;;5038724;28;20048;-87
2021/01/01 13:02:34;;;;;;;0.88;0.68;;;10.70;92.10;;;;;;5037487;28;20033;-87
2021/01/01 13:05:00;;;;;;;3.53;1.00;;;10.10;93.10;;;;;;5040561;28;20394;-88
2021/01/01 13:07:26;;;;;;;2.40;1.30;;;9.60;94.00;;;;;;5035388;28;20127;-86
2021/01/01 13:09:51;;;;;;;3.25;1.02;;;9.60;94.10;;;;;;5040804;28;20138;-86
2021/01/01 13:12:17;;;;;;;3.83;1.30;;;9.30;94.70;;;;;;5034516;28;20036;-87
2021/01/01 13:14:43;;;;;;;3.75;1.00;;;9.10;95.70;;;;;;5071897;28;20242;-87
2021/01/01 13:17:09;;;;;;;3.38;1.10;;;8.80;96.40;;;;;;5056177;28;20044;-87
2021/01/01 13:19:34;;;;;;;2.28;0.95;;;8.30;97.90;;;;;;5039403;28;20041;-87
2021/01/01 13:22:00;;;;;;;3.55;1.10;;;8.80;96.80;;;;;;5023855;28;20045;-87
2021/01/01 13:24:26;;;;;;;2.65;0.95;;;8.80;97.90;;;;;;5038390;28;20123;-87
2021/01/01 13:26:51;;;;;;;4.53;0.95;;;8.30;97.30;;;;;;5068334;28;20103;-87
2021/01/01 13:29:17;;;;;;;3.35;1.23;;;8.20;97.80;;;;;;5070878;28;20033;-87
2021/01/01 13:31:44;;;;;;;5.07;1.25;;;8.30;98.50;;;;;;5037096;28;20052;-86
2021/01/01 13:34:10;;;;;;;3.17;1.02;;;8.40;98.20;;;;;;5019954;28;20041;-86
2021/01/01 13:36:37;;;;;;;1.42;1.00;;;8.40;98.20;;;;;;5050504;28;20038;-86
2021/01/01 13:39:04;;;;;;;1.90;0.95;;;8.20;98.10;;;;;;5031454;28;20098;-86
2021/01/01 13:41:31;;;;;;;1.65;0.95;;;8.20;98.10;;;;;;5038004;28;20090;-87
2021/01/01 13:43:57;;;;;;;6.70;1.52;;;9.00;97.40;;;;;;5022177;28;20092;-86
2021/01/01 13:46:29;;;;;;;2.63;1.25;;;9.10;96.80;;;;;;5026728;28;20340;-87
2021/01/01 13:48:55;;;;;;;2.67;1.10;;;8.90;96.70;;;;;;5033117;28;20060;-86
2021/01/01 13:51:35;;;;;;;2.25;1.52;;;8.50;97.30;;;;;;5053079;28;20454;-86
2021/01/01 13:54:01;;;;;;;2.80;1.10;;;8.50;97.70;;;;;;5037677;28;20044;-88
2021/01/01 13:56:27;;;;;;;2.78;1.02;;;8.50;97.00;;;;;;5038191;28;20033;-86
2021/01/01 13:58:53;;;;;;;2.40;1.00;;;8.20;97.40;;;;;;5033140;28;20106;-86
2021/01/01 14:01:20;;;;;;;2.58;1.40;;;8.30;97.80;;;;;;5036285;28;20453;-86
2021/01/01 14:03:46;;;;;;;2.13;1.02;;;7.90;98.20;;;;;;5071872;28;20055;-87
2021/01/01 14:06:12;;;;;;;3.13;1.50;;;8.00;98.40;;;;;;5064516;28;20518;-86
2021/01/01 14:08:39;;;;;;;1.88;0.93;;;8.10;98.40;;;;;;5019289;28;20049;-89
2021/01/01 14:11:09;;;;;;;2.13;1.10;;;8.10;98.80;;;;;;5039501;28;20119;-87
2021/01/01 14:13:35;;;;;;;1.52;0.93;;;8.50;97.80;;;;;;5051361;28;20441;-87
2021/01/01 14:16:01;;;;;;;3.67;1.02;;;8.50;97.90;;;;;;5006347;28;20041;-87
2021/01/01 14:18:26;;;;;;;3.28;1.40;;;8.30;98.10;;;;;;5033903;28;20037;-87
2021/01/01 14:20:53;;;;;;;2.83;1.00;;;8.30;97.90;;;;;;5068390;28;20045;-86
2021/01/01 14:23:19;;;;;;;3.00;1.10;;;8.40;97.80;;;;;;5038888;28;20053;-86
2021/01/01 14:25:45;;;;;;;3.72;1.35;;;8.30;98.00;;;;;;5036214;28;20099;-88
2021/01/01 14:28:11;;;;;;;1.23;1.08;;;7.80;98.50;;;;;;5033960;28;20045;-88
2021/01/01 14:30:38;;;;;;;2.65;1.20;;;8.20;98.80;;;;;;5027734;28;20060;-86
2021/01/01 14:33:05;;;;;;;4.60;1.20;;;8.00;98.80;;;;;;5026525;28;20071;-86
2021/01/01 14:35:30;;;;;;;3.47;1.45;;;8.10;99.10;;;;;;5054309;28;20049;-87
2021/01/01 14:37:56;;;;;;;4.55;1.17;;;8.00;99.00;;;;;;5035291;28;20041;-86
2021/01/01 14:40:22;;;;;;;2.38;1.08;;;8.20;98.40;;;;;;5041254;28;20037;-87
2021/01/01 14:42:49;;;;;;;4.53;1.33;;;8.40;98.30;;;;;;5025767;28;20041;-87
2021/01/01 14:45:15;;;;;;;3.22;0.95;;;8.20;97.60;;;;;;5023673;28;20433;-86
2021/01/01 14:47:45;;;;;;;3.00;0.68;;;8.30;97.90;;;;;;5035084;28;20049;-86
2021/01/01 14:50:11;;;;;;;4.80;1.17;;;8.40;97.90;;;;;;5005571;28;20443;-86
2021/01/01 14:52:37;;;;;;;2.67;1.05;;;8.30;98.00;;;;;;5020606;28;20417;-87
2021/01/01 14:55:07;;;;;;;2.15;1.20;;;8.20;98.00;;;;;;5024365;28;20052;-87
2021/01/01 14:57:32;;;;;;;2.35;1.00;;;8.20;98.10;;;;;;5036330;28;20379;-86
2021/01/01 14:59:58;;;;;;;2.95;1.20;;;8.20;98.00;;;;;;5035425;28;20098;-87
2021/01/01 15:02:24;;;;;;;5.93;1.48;;;8.10;98.10;;;;;;5037664;28;20518;-89
2021/01/01 15:04:50;;;;;;;2.70;1.10;;;8.10;98.30;;;;;;5044286;28;20094;-87
2021/01/01 15:07:15;;;;;;;3.30;1.45;;;7.70;99.10;;;;;;5033578;28;20585;-86
2021/01/01 15:09:41;;;;;;;2.10;1.20;;;7.90;98.80;;;;;;5027056;28;20120;-88
2021/01/01 15:12:07;;;;;;;1.75;1.10;;;7.90;99.10;;;;;;5027184;28;20033;-85
2021/01/01 15:14:33;;;;;;;7.97;1.50;;;7.80;98.90;;;;;;5032071;28;20065;-88
2021/01/01 15:16:58;;;;;;;4.30;1.70;;;7.80;99.00;;;;;;5032345;28;20475;-87
2021/01/01 15:19:24;;;;;;;5.18;1.85;;;7.70;99.20;;;;;;5023977;28;20049;-88
2021/01/01 15:21:50;;;;;;;3.03;1.40;;;7.70;99.10;;;;;;5034969;28;20404;-88
2021/01/01 15:24:17;;;;;;;6.15;1.70;;;7.60;99.00;;;;;;5059115;28;20131;-85
2021/01/01 15:26:43;;;;;;;2.42;1.40;;;7.60;99.60;;;;;;5071817;28;20433;-87
2021/01/01 15:29:09;;;;;;;4.05;1.83;;;7.50;99.60;;;;;;5074092;28;20037;-88
2021/01/01 15:31:34;;;;;;;2.15;1.55;;;7.40;99.90;;;;;;5039016;28;20402;-88
2021/01/01 15:34:02;;;;;;;6.75;1.65;;;7.30;99.80;;;;;;5039439;28;20033;-87
2021/01/01 15:36:28;;;;;;;5.97;2.38;;;7.10;99.90;;;;;;5030050;28;20045;-87
2021/01/01 15:38:53;;;;;;;5.68;2.55;;;7.00;99.90;;;;;;5004595;28;20076;-87
2021/01/01 15:41:19;;;;;;;6.47;2.10;;;6.90;99.90;;;;;;5041031;28;20047;-87
2021/01/01 15:43:45;;;;;;;3.75;2.20;;;6.90;99.90;;;;;;5040944;28;20064;-87
2021/01/01 15:46:16;;;;;;;4.30;2.08;;;6.80;99.90;;;;;;5036198;28;20041;-87
2021/01/01 15:48:44;;;;;;;2.72;1.88;;;6.80;99.90;;;;;;5040608;28;20052;-87
2021/01/01 15:51:16;;;;;;;7.68;4.65;;;6.70;99.90;;;;;;5039410;28;20091;-87
2021/01/01 15:53:43;;;;;;;9.85;6.80;;;6.70;99.90;;;;;;5050466;28;20047;-86
2021/01/01 15:56:08;;;;;;;3.90;2.88;;;6.60;99.90;;;;;;5040326;28;20107;-87
2021/01/01 15:58:34;;;;;;;4.18;2.63;;;6.60;99.90;;;;;;5041041;28;20045;-87
2021/01/01 16:01:00;;;;;;;6.40;3.47;;;6.50;99.90;;;;;;5039282;28;20041;-86
2021/01/01 16:03:26;;;;;;;2.40;2.08;;;6.50;99.90;;;;;;5041486;28;20071;-86
2021/01/01 16:05:52;;;;;;;3.38;3.00;;;6.20;99.90;;;;;;5030088;28;20128;-87
2021/01/01 16:08:17;;;;;;;4.68;2.92;;;6.40;99.90;;;;;;5066478;28;20140;-86
2021/01/01 16:10:43;;;;;;;9.05;2.67;;;6.40;99.90;;;;;;5038114;28;20105;-87
2021/01/01 16:13:08;;;;;;;5.00;2.95;;;6.30;99.90;;;;;;5040173;28;20506;-87
2021/01/01 16:15:36;;;;;;;5.57;2.63;;;6.20;99.90;;;;;;5026715;28;20046;-85
2021/01/01 16:18:02;;;;;;;3.20;2.30;;;6.10;99.90;;;;;;5021900;28;20124;-87
2021/01/01 16:20:29;;;;;;;7.97;2.50;;;6.20;99.90;;;;;;5024778;28;20515;-85
2021/01/01 16:22:54;;;;;;;4.63;1.77;;;6.10;99.90;;;;;;5062549;28;20077;-85
2021/01/01 16:25:20;;;;;;;5.13;2.40;;;6.20;99.90;;;;;;5074221;28;20033;-86
2021/01/01 16:27:46;;;;;;;7.30;2.50;;;6.10;99.90;;;;;;5046398;28;20040;-87
2021/01/01 16:30:14;;;;;;;4.30;2.55;;;6.20;99.90;;;;;;5045475;28;20045;-85
2021/01/01 16:32:40;;;;;;;3.35;2.50;;;6.10;99.90;;;;;;5072137;28;20053;-86
2021/01/01 16:35:09;;;;;;;6.43;2.90;;;6.00;99.90;;;;;;5023274;28;20036;-85
2021/01/01 16:37:39;;;;;;;4.93;2.55;;;5.90;99.90;;;;;;5044305;28;20398;-84
2021/01/01 16:40:08;;;;;;;8.70;2.90;;;6.00;99.90;;;;;;5044383;28;20059;-86
2021/01/01 16:42:36;;;;;;;6.30;2.40;;;5.80;99.90;;;;;;5003513;28;20035;-86
2021/01/01 16:45:09;;;;;;;5.43;2.88;;;5.80;99.90;;;;;;5037734;28;20049;-86
2021/01/01 16:47:39;;;;;;;6.60;3.35;;;5.80;99.90;;;;;;5065031;28;95448;-86
2021/01/01 16:50:06;;;;;;;5.35;3.28;;;5.70;99.90;;;;;;5059387;28;20121;-87
2021/01/01 16:52:32;;;;;;;8.00;3.15;;;5.60;99.90;;;;;;5061186;28;20045;-86
2021/01/01 16:54:58;;;;;;;4.07;2.65;;;5.60;99.90;;;;;;5052864;28;20556;-85
2021/01/01 16:57:23;;;;;;;4.03;2.83;;;5.60;99.90;;;;;;5037787;28;20501;-86
2021/01/01 16:59:49;;;;;;;6.93;3.88;;;5.60;99.90;;;;;;5041123;28;20052;-86
2021/01/01 17:02:15;;;;;;;5.28;2.67;;;5.60;99.90;;;;;;5038117;28;20313;-85
2021/01/01 17:04:40;;;;;;;9.13;4.10;;;5.70;99.90;;;;;;5036924;28;20476;-87
2021/01/01 17:07:06;;;;;;;5.85;3.30;;;5.50;99.90;;;;;;5037362;28;20041;-86
2021/01/01 17:09:32;;;;;;;11.05;4.15;;;5.50;99.90;;;;;;5039557;28;20041;-87
2021/01/01 17:11:58;;;;;;;10.13;4.10;;;5.60;99.90;;;;;;5041002;28;20046;-86
2021/01/01 17:14:24;;;;;;;5.50;4.13;;;5.50;99.90;;;;;;5055578;28;20544;-86
2021/01/01 17:17:13;;;;;;;8.27;4.47;;;5.40;99.90;;;;;;5039264;28;20049;-86
2021/01/01 17:19:39;;;;;;;10.45;4.05;;;5.30;99.90;;;;;;5035878;28;20044;-87
2021/01/01 17:22:04;;;;;;;6.45;3.17;;;5.40;99.90;;;;;;5053959;28;20502;-87
2021/01/01 17:24:33;;;;;;;6.50;3.88;;;5.50;99.90;;;;;;5038273;28;20106;-87
2021/01/01 17:26:58;;;;;;;7.60;4.15;;;5.30;99.90;;;;;;5034625;28;20049;-86
2021/01/01 17:29:27;;;;;;;5.60;4.15;;;5.30;99.90;;;;;;5062349;28;20041;-86
2021/01/01 17:31:55;;;;;;;6.35;4.32;;;5.20;99.90;;;;;;5040005;28;20368;-86
2021/01/01 17:34:20;;;;;;;5.65;3.80;;;5.20;99.90;;;;;;5037566;28;20057;-86
2021/01/01 17:36:46;;;;;;;7.93;3.88;;;5.10;99.90;;;;;;5053645;28;20486;-86
2021/01/01 17:39:12;;;;;;;5.43;3.28;;;5.20;99.90;;;;;;5038578;28;20076;-85
2021/01/01 17:41:37;;;;;;;7.72;3.85;;;5.20;99.90;;;;;;5037869;28;20173;-84
2021/01/01 17:44:04;;;;;;;7.20;3.15;;;5.20;99.90;;;;;;5038588;28;20041;-84
2021/01/01 17:46:30;;;;;;;7.85;4.57;;;5.10;99.90;;;;;;5039012;28;20048;-85
2021/01/01 17:48:56;;;;;;;5.45;3.53;;;5.30;99.90;;;;;;5036409;28;20041;-85
2021/01/01 17:51:22;;;;;;;5.95;3.35;;;5.20;99.90;;;;;;5048615;28;20033;-85
2021/01/01 17:53:50;;;;;;;5.72;3.25;;;5.10;99.90;;;;;;5039416;28;20132;-84
2021/01/01 17:56:16;;;;;;;6.30;2.97;;;5.10;99.90;;;;;;5043253;28;20122;-85
2021/01/01 17:58:42;;;;;;;6.68;3.05;;;5.10;99.90;;;;;;5043387;28;20482;-85
2021/01/01 18:01:07;;;;;;;4.97;3.17;;;5.00;99.90;;;;;;5042906;28;20660;-86
2021/01/01 18:03:33;;;;;;;4.00;3.08;;;4.90;99.90;;;;;;5058007;28;20262;-85
2021/01/01 18:05:59;;;;;;;9.27;3.60;;;4.90;99.90;;;;;;5043154;28;20478;-87
2021/01/01 18:08:27;;;;;;;5.07;3.17;;;4.80;99.90;;;;;;5041877;28;20204;-87
2021/01/01 18:10:54;;;;;;;4.28;3.72;;;4.80;99.90;;;;;;5020941;28;20050;-87
2021/01/01 18:13:20;;;;;;;5.68;4.28;;;4.80;99.90;;;;;;5060777;28;20049;-86
2021/01/01 18:15:50;;;;;;;5.70;4.22;;;4.80;99.90;;;;;;5044799;28;20540;-86
2021/01/01 18:18:16;;;;;;;10.65;3.35;;;4.80;99.90;;;;;;5042790;28;20043;-85
2021/01/01 18:20:42;;;;;;;6.43;3.60;;;4.80;99.90;;;;;;5042328;28;20118;-86
2021/01/01 18:23:28;;;;;;;10.52;3.80;;;4.80;99.90;;;;;;5036148;28;20048;-86
2021/01/01 18:25:56;;;;;;;7.00;3.28;;;4.90;99.90;;;;;;5039327;28;20052;-86
2021/01/01 18:28:21;;;;;;;7.78;4.45;;;4.90;99.90;;;;;;5026765;28;20064;-87
2021/01/01 18:30:52;;;;;;;4.32;3.25;;;4.90;99.90;;;;;;5030492;28;20041;-87
2021/01/01 18:33:21;;;;;;;6.63;4.38;;;4.90;99.90;;;;;;5041782;28;20057;-87
2021/01/01 18:35:54;;;;;;;4.50;4.07;;;4.80;99.90;;;;;;5073888;28;20049;-86
2021/01/01 18:38:41;;;;;;;;;;;4.70;99.90;;;;;;5042408;28;20037;-86
2021/01/01 18:41:08;;;;;;;5.80;4.18;;;4.70;99.90;;;;;;5041776;28;19932;-85
2021/01/01 18:44:03;;;;;;;12.20;5.43;;;4.70;99.90;;;;;;5036932;28;20033;-85
2021/01/01 18:46:30;;;;;;;6.20;4.93;;;4.70;99.90;;;;;;5019790;28;20546;-87
2021/01/01 18:48:59;;;;;;;12.00;6.03;;;4.70;99.90;;;;;;5040575;28;20041;-87
2021/01/01 18:51:26;;;;;;;9.05;6.10;;;4.70;99.90;;;;;;5043122;28;20068;-88
2021/01/01 18:54:03;;;;;;;11.05;5.30;;;4.70;99.90;;;;;;5041850;28;20331;-85
2021/01/01 18:56:35;;;;;;;5.85;4.72;;;4.70;99.90;;;;;;5024619;28;20167;-86
2021/01/01 18:59:06;;;;;;;6.93;4.40;;;4.80;99.90;;;;;;5036176;28;20547;-85
2021/01/01 19:01:48;;;;;;;5.40;4.78;;;4.80;99.90;;;;;;5041778;28;20515;-85
2021/01/01 19:04:48;;;;;;;8.07;5.30;;;4.80;99.90;;;;;;5040392;28;20033;-85
2021/01/01 19:07:31;;;;;;;6.07;4.63;;;4.80;99.90;;;;;;5041049;28;20041;-86
2021/01/01 19:09:59;;;;;;;4.28;3.88;;;4.90;99.90;;;;;;5041513;28;20073;-85
2021/01/01 19:12:25;;;;;;;7.50;4.28;;;5.00;99.90;;;;;;5041342;28;20124;-86
2021/01/01 19:14:52;;;;;;;9.05;5.30;;;5.00;99.90;;;;;;5041953;28;20067;-86
2021/01/01 19:17:19;;;;;;;6.45;4.07;;;4.90;99.90;;;;;;5039952;28;20339;-86
2021/01/01 19:19:46;;;;;;;6.32;3.40;;;4.90;99.90;;;;;;5067653;28;20045;-85
2021/01/01 19:22:20;;;;;;;9.50;5.50;;;4.90;99.90;;;;;;5038305;28;20115;-86
2021/01/01 19:24:47;;;;;;;10.50;4.95;;;4.80;99.90;;;;;;5029707;28;20529;-87
2021/01/01 19:27:47;;;;;;;7.28;5.35;;;4.90;99.90;;;;;;5043168;28;20032;-86
2021/01/01 19:30:25;;;;;;;8.05;4.68;;;4.90;99.90;;;;;;5041288;28;20055;-85
2021/01/01 19:33:05;;;;;;;9.70;5.38;;;4.80;99.90;;;;;;5033095;28;20068;-85
2021/01/01 19:36:09;;;;;;;6.72;4.53;;;4.90;99.90;;;;;;5023032;28;20842;-86
2021/01/01 19:39:21;;;;;;;7.43;4.30;;;4.90;99.90;;;;;;5017093;28;20045;-86
2021/01/01 19:42:11;;;;;;;8.43;4.75;;;4.90;99.90;;;;;;5037663;28;20030;-86
2021/01/01 19:45:25;;;;;;;10.80;5.13;;;4.80;99.90;;;;;;5054104;28;20135;-87
2021/01/01 19:48:14;;;;;;;10.70;5.93;;;4.80;99.90;;;;;;5036507;28;20091;-86
2021/01/01 19:50:57;;;;;;;8.25;5.28;;;4.80;99.90;;;;;;5039207;28;20395;-86
2021/01/01 19:53:57;;;;;;;9.43;5.72;;;4.90;99.90;;;;;;5038423;28;20041;-87
2021/01/01 19:56:24;;;;;;;10.93;6.70;;;4.90;99.90;;;;;;5040577;28;20466;-86
2021/01/01 19:59:08;;;;;;;13.23;7.15;;;4.80;99.90;;;;;;5058340;28;20036;-85
2021/01/01 20:01:41;;;;;;;14.65;9.32;;;4.80;99.90;;;;;;5035592;28;20041;-86
2021/01/01 20:04:11;;;;;;;;;;;4.70;99.90;;;;;;5037867;28;20029;-86
2021/01/01 20:06:57;;;;;;;20.05;11.95;;;4.70;99.90;;;;;;5055947;28;20274;-86
2021/01/01 20:09:30;;;;;;;19.52;12.32;;;4.60;99.90;;;;;;5042020;28;20123;-86
2021/01/01 20:12:15;;;;;;;21.73;12.90;;;4.60;99.90;;;;;;5038994;28;20092;-86
2021/01/01 20:14:44;;;;;;;22.45;13.95;;;4.60;99.90;;;;;;5019449;28;20446;-86
2021/01/01 20:17:12;;;;;;;22.40;14.50;;;4.60;99.90;;;;;;5034338;28;20617;-87